MSC Channe — CQZK — position and weather

sailwx.info

Track history (hours):
 
Tides and Currents Weather Stations Pressure Air Temp Water Temp Dewpoint Dewpoint Depression Visibility Wind Speed Wind Dir Waves Ship Positions

MSC Channe

Last reported at 2018-Jun-23 10:01 UTC. Time now 2018-Jun-23 15:53 UTC.
Position N 34°54' W 029°16'.

Length 300 m; draft 11.5 m.

Type: Cargo ship. MMSI: 255805864.

Date/timePositionNaut miles runAvg speedWind from/ knotsBaromVisibWave heightAir tempDewpointWater temp
2018-Jun-23 10:01N 34°54' W 029°16'421.1
2018-Jun-23 09:51N 34°53' W 029°20'  
2018-Jun-17 03:56N 09°41' W 079°43'1020.7
2018-Jun-17 03:27N 09°32' W 079°49'919.5
2018-Jun-17 03:01N 09°26' W 079°55'510.1
2018-Jun-17 02:30N 09°21' W 079°55'1 1.3
2018-Jun-17 01:58N 09°21' W 079°54'0 0.0
2018-Jun-17 01:28N 09°21' W 079°54'0 0.0
2018-Jun-17 00:58N 09°21' W 079°54'0 0.0
2018-Jun-17 00:28N 09°21' W 079°54'0 0.0
2018-Jun-16 23:58N 09°21' W 079°54'0 0.0
2018-Jun-16 23:28N 09°21' W 079°54'0 0.0
2018-Jun-16 22:58N 09°21' W 079°54'0 0.0
2018-Jun-16 22:28N 09°21' W 079°54'0 0.0
2018-Jun-16 21:58N 09°21' W 079°54'0 0.0
2018-Jun-16 21:28N 09°21' W 079°54'0 0.0
2018-Jun-16 20:58N 09°21' W 079°54'0 0.0
2018-Jun-16 20:28N 09°21' W 079°54'0 0.0
2018-Jun-16 19:58N 09°21' W 079°54'0 0.0
2018-Jun-16 19:28N 09°21' W 079°54'0 0.0
2018-Jun-16 18:58N 09°21' W 079°54'0 0.0
2018-Jun-16 18:28N 09°21' W 079°54'0 0.0
2018-Jun-16 17:58N 09°21' W 079°54'0 0.0
2018-Jun-16 17:28N 09°21' W 079°54'0 0.0
2018-Jun-16 16:58N 09°21' W 079°54'0 0.0
2018-Jun-16 16:28N 09°21' W 079°54'0 0.0
2018-Jun-16 15:58N 09°21' W 079°54'0 0.0
2018-Jun-16 15:28N 09°21' W 079°54'0 0.0
2018-Jun-16 14:58N 09°21' W 079°54'0 0.0
2018-Jun-16 14:28N 09°21' W 079°54'0 0.0
2018-Jun-16 13:58N 09°21' W 079°54'0 0.0
2018-Jun-16 13:28N 09°21' W 079°54'0 0.0
2018-Jun-16 12:58N 09°21' W 079°54'0 0.0
2018-Jun-16 12:28N 09°21' W 079°54'0 0.0
2018-Jun-16 11:58N 09°21' W 079°54'0 0.0
2018-Jun-16 11:28N 09°21' W 079°54'0 0.0
2018-Jun-16 10:58N 09°21' W 079°54'0 0.0
2018-Jun-16 10:28N 09°21' W 079°54'0 0.0
2018-Jun-16 09:58N 09°21' W 079°54'0 0.0
2018-Jun-16 09:28N 09°21' W 079°54'0 0.0
2018-Jun-16 08:58N 09°21' W 079°54'0 0.0
2018-Jun-16 08:28N 09°21' W 079°54'0 0.0
2018-Jun-16 07:58N 09°21' W 079°54'0 0.0
2018-Jun-16 07:28N 09°21' W 079°54'0 0.0
2018-Jun-16 06:58N 09°21' W 079°54'0 0.0
2018-Jun-16 06:28N 09°21' W 079°54'0 0.0
2018-Jun-16 05:58N 09°21' W 079°54'0 0.0
2018-Jun-16 05:25N 09°21' W 079°54'0 0.0
2018-Jun-16 04:58N 09°21' W 079°54'0 0.0
2018-Jun-16 04:28N 09°21' W 079°54'0 0.3
2018-Jun-16 04:00N 09°21' W 079°55'2 3.4
2018-Jun-16 03:30N 09°23' W 079°55'3 6.3
2018-Jun-16 03:01N 09°26' W 079°55'3 6.4
2018-Jun-16 02:29N 09°29' W 079°55'4 7.9
2018-Jun-16 02:00N 09°25' W 079°55'3 6.8
2018-Jun-16 01:30N 09°22' W 079°55'4 8.1
2018-Jun-16 01:00N 09°18' W 079°55'1 2.5
2018-Jun-16 00:30N 09°17' W 079°55'0 0.2
2018-Jun-15 23:47N 09°16' W 079°55'1 0.3
2018-Jun-15 22:11N 09°16' W 079°55'0 0.0
2018-Jun-15 21:44N 09°16' W 079°55'0 0.8
2018-Jun-15 21:25N 09°16' W 079°55'0 0.6
2018-Jun-15 21:00N 09°15' W 079°55'1 1.6
2018-Jun-15 20:30N 09°15' W 079°55'0 0.5
2018-Jun-15 20:00N 09°15' W 079°55'0 0.9
2018-Jun-15 19:29N 09°14' W 079°55'3 5.0
2018-Jun-15 18:58N 09°12' W 079°54'  
Track history (hours):
 
Tides and Currents Weather Stations Pressure Air Temp Water Temp Dewpoint Dewpoint Depression Visibility Wind Speed Wind Dir Waves Ship Positions

MSC Channe

Last reported at 2018-Jun-23 10:01 UTC. Time now 2018-Jun-23 15:53 UTC.
Position N 34°54' W 029°16'.

Length 300 m; draft 11.5 m.

Type: Cargo ship. MMSI: 255805864.

Date/timePositionNaut miles runAvg speedWind from/ knotsBaromVisibWave heightAir tempDewpointWater temp
2018-Jun-23 10:01N 34°54' W 029°16'421.1
2018-Jun-23 09:51N 34°53' W 029°20'  
2018-Jun-17 03:56N 09°41' W 079°43'1020.7
2018-Jun-17 03:27N 09°32' W 079°49'919.5
2018-Jun-17 03:01N 09°26' W 079°55'510.1
2018-Jun-17 02:30N 09°21' W 079°55'1 1.3
2018-Jun-17 01:58N 09°21' W 079°54'0 0.0
2018-Jun-17 01:28N 09°21' W 079°54'0 0.0
2018-Jun-17 00:58N 09°21' W 079°54'0 0.0
2018-Jun-17 00:28N 09°21' W 079°54'0 0.0
2018-Jun-16 23:58N 09°21' W 079°54'0 0.0
2018-Jun-16 23:28N 09°21' W 079°54'0 0.0
2018-Jun-16 22:58N 09°21' W 079°54'0 0.0
2018-Jun-16 22:28N 09°21' W 079°54'0 0.0
2018-Jun-16 21:58N 09°21' W 079°54'0 0.0
2018-Jun-16 21:28N 09°21' W 079°54'0 0.0
2018-Jun-16 20:58N 09°21' W 079°54'0 0.0
2018-Jun-16 20:28N 09°21' W 079°54'0 0.0
2018-Jun-16 19:58N 09°21' W 079°54'0 0.0
2018-Jun-16 19:28N 09°21' W 079°54'0 0.0
2018-Jun-16 18:58N 09°21' W 079°54'0 0.0
2018-Jun-16 18:28N 09°21' W 079°54'0 0.0
2018-Jun-16 17:58N 09°21' W 079°54'0 0.0
2018-Jun-16 17:28N 09°21' W 079°54'0 0.0
2018-Jun-16 16:58N 09°21' W 079°54'0 0.0
2018-Jun-16 16:28N 09°21' W 079°54'0 0.0
2018-Jun-16 15:58N 09°21' W 079°54'0 0.0
2018-Jun-16 15:28N 09°21' W 079°54'0 0.0
2018-Jun-16 14:58N 09°21' W 079°54'0 0.0
2018-Jun-16 14:28N 09°21' W 079°54'0 0.0
2018-Jun-16 13:58N 09°21' W 079°54'0 0.0
2018-Jun-16 13:28N 09°21' W 079°54'0 0.0
2018-Jun-16 12:58N 09°21' W 079°54'0 0.0
2018-Jun-16 12:28N 09°21' W 079°54'0 0.0
2018-Jun-16 11:58N 09°21' W 079°54'0 0.0
2018-Jun-16 11:28N 09°21' W 079°54'0 0.0
2018-Jun-16 10:58N 09°21' W 079°54'0 0.0
2018-Jun-16 10:28N 09°21' W 079°54'0 0.0
2018-Jun-16 09:58N 09°21' W 079°54'0 0.0
2018-Jun-16 09:28N 09°21' W 079°54'0 0.0
2018-Jun-16 08:58N 09°21' W 079°54'0 0.0
2018-Jun-16 08:28N 09°21' W 079°54'0 0.0
2018-Jun-16 07:58N 09°21' W 079°54'0 0.0
2018-Jun-16 07:28N 09°21' W 079°54'0 0.0
2018-Jun-16 06:58N 09°21' W 079°54'0 0.0
2018-Jun-16 06:28N 09°21' W 079°54'0 0.0
2018-Jun-16 05:58N 09°21' W 079°54'0 0.0
2018-Jun-16 05:25N 09°21' W 079°54'0 0.0
2018-Jun-16 04:58N 09°21' W 079°54'0 0.0
2018-Jun-16 04:28N 09°21' W 079°54'0 0.3
2018-Jun-16 04:00N 09°21' W 079°55'2 3.4
2018-Jun-16 03:30N 09°23' W 079°55'3 6.3
2018-Jun-16 03:01N 09°26' W 079°55'3 6.4
2018-Jun-16 02:29N 09°29' W 079°55'4 7.9
2018-Jun-16 02:00N 09°25' W 079°55'3 6.8
2018-Jun-16 01:30N 09°22' W 079°55'4 8.1
2018-Jun-16 01:00N 09°18' W 079°55'1 2.5
2018-Jun-16 00:30N 09°17' W 079°55'0 0.2
2018-Jun-15 23:47N 09°16' W 079°55'1 0.3
2018-Jun-15 22:11N 09°16' W 079°55'0 0.0
2018-Jun-15 21:44N 09°16' W 079°55'0 0.8
2018-Jun-15 21:25N 09°16' W 079°55'0 0.6
2018-Jun-15 21:00N 09°15' W 079°55'1 1.6
2018-Jun-15 20:30N 09°15' W 079°55'0 0.5
2018-Jun-15 20:00N 09°15' W 079°55'0 0.9
2018-Jun-15 19:29N 09°14' W 079°55'3 5.0
2018-Jun-15 18:58N 09°12' W 079°54'  

Dump ship's entire track history